createdAt,value
2018-05-25T00:01:27.484Z,15.90
2018-05-25T00:03:55.007Z,16.00
2018-05-25T00:06:22.514Z,15.80
2018-05-25T00:08:51.533Z,15.70
2018-05-25T00:11:19.472Z,15.50
2018-05-25T00:13:48.315Z,15.60
2018-05-25T00:16:16.092Z,15.50
2018-05-25T00:18:43.601Z,15.40
2018-05-25T00:21:11.125Z,15.50
2018-05-25T00:23:38.625Z,15.70
2018-05-25T00:26:06.125Z,15.70
2018-05-25T00:28:33.652Z,15.80
2018-05-25T00:31:01.159Z,15.60
2018-05-25T00:33:29.154Z,15.50
2018-05-25T00:35:56.650Z,15.60
2018-05-25T00:38:24.148Z,15.60
2018-05-25T00:40:51.663Z,15.60
2018-05-25T00:43:19.624Z,15.60
2018-05-25T00:45:47.346Z,15.70
2018-05-25T00:48:14.844Z,15.70
2018-05-25T00:50:42.348Z,15.60
2018-05-25T00:53:09.869Z,15.80
2018-05-25T00:55:39.051Z,15.90
2018-05-25T00:58:06.590Z,15.80
2018-05-25T01:00:34.089Z,15.70
2018-05-25T01:03:01.592Z,15.70
2018-05-25T01:05:29.236Z,15.40
2018-05-25T01:07:56.733Z,15.30
2018-05-25T01:10:24.257Z,15.30
2018-05-25T01:12:51.753Z,15.10
2018-05-25T01:15:19.252Z,15.00
2018-05-25T01:17:46.771Z,15.40
2018-05-25T01:20:15.060Z,15.50
2018-05-25T01:22:42.588Z,15.50
2018-05-25T01:25:11.388Z,15.40
2018-05-25T01:27:38.892Z,15.40
2018-05-25T01:30:06.420Z,15.20
2018-05-25T01:32:33.962Z,15.10
2018-05-25T01:35:01.496Z,15.20
2018-05-25T01:37:29.198Z,15.20
2018-05-25T01:39:56.701Z,15.00
2018-05-25T01:42:25.584Z,15.00
2018-05-25T01:44:53.953Z,15.10
2018-05-25T01:47:21.468Z,15.20
2018-05-25T01:49:49.407Z,15.00
2018-05-25T01:52:16.906Z,14.80
2018-05-25T01:54:45.235Z,14.70
2018-05-25T01:57:12.731Z,14.70
2018-05-25T01:59:40.571Z,14.60
2018-05-25T02:02:08.069Z,14.40
2018-05-25T02:04:35.956Z,14.40
2018-05-25T02:07:03.493Z,14.40
2018-05-25T02:09:30.991Z,14.40
2018-05-25T02:11:58.507Z,14.40
2018-05-25T02:14:26.007Z,14.80
2018-05-25T02:16:54.240Z,15.00
2018-05-25T02:19:21.764Z,15.00
2018-05-25T02:21:50.049Z,14.90
2018-05-25T02:24:17.571Z,14.90
2018-05-25T02:26:45.101Z,14.80
2018-05-25T02:29:12.587Z,14.60
2018-05-25T02:31:40.110Z,14.50
2018-05-25T02:34:07.603Z,14.30
2018-05-25T02:36:35.120Z,14.20
2018-05-25T02:39:02.643Z,14.20
2018-05-25T02:41:30.147Z,14.10
2018-05-25T02:43:57.688Z,14.10
2018-05-25T02:46:25.188Z,14.10
2018-05-25T02:48:52.883Z,14.10
2018-05-25T02:51:20.379Z,14.30
2018-05-25T02:53:47.885Z,14.20
2018-05-25T02:56:15.408Z,14.30
2018-05-25T02:58:42.904Z,14.60
2018-05-25T03:01:10.432Z,14.70
2018-05-25T03:03:37.995Z,14.50
2018-05-25T03:06:06.255Z,14.40
2018-05-25T03:08:33.784Z,14.50
2018-05-25T03:11:01.316Z,14.70
2018-05-25T03:13:28.835Z,14.90
2018-05-25T03:15:56.340Z,14.80
2018-05-25T03:18:23.864Z,15.10
2018-05-25T03:20:52.099Z,15.20
2018-05-25T03:23:19.596Z,15.10
2018-05-25T03:25:47.121Z,15.00
2018-05-25T03:28:14.614Z,15.20
2018-05-25T03:30:42.572Z,15.40
2018-05-25T03:33:11.164Z,15.50
2018-05-25T03:35:38.667Z,15.40
2018-05-25T03:38:06.193Z,15.20
2018-05-25T03:40:33.687Z,15.10
2018-05-25T03:43:01.183Z,15.00
2018-05-25T03:45:29.166Z,15.00
2018-05-25T03:47:56.667Z,15.40
2018-05-25T03:50:24.187Z,15.40
2018-05-25T03:52:52.123Z,15.40
2018-05-25T03:55:20.064Z,15.30
2018-05-25T03:57:47.577Z,15.30
2018-05-25T04:00:26.749Z,15.40
2018-05-25T04:02:54.267Z,15.60
2018-05-25T04:05:21.774Z,15.90
2018-05-25T04:07:49.300Z,15.90
2018-05-25T04:10:16.800Z,15.90
2018-05-25T04:12:44.304Z,15.90
2018-05-25T04:15:11.828Z,15.90
2018-05-25T04:17:39.336Z,15.80
2018-05-25T04:20:06.860Z,15.70
2018-05-25T04:22:34.804Z,15.50
2018-05-25T04:25:02.749Z,15.70
2018-05-25T04:27:30.273Z,15.80
2018-05-25T04:29:57.777Z,16.00
2018-05-25T04:32:25.865Z,16.00
2018-05-25T04:34:53.364Z,16.10
2018-05-25T04:37:20.864Z,16.10
2018-05-25T04:39:48.407Z,16.20
2018-05-25T04:42:15.910Z,16.20
2018-05-25T04:44:44.252Z,16.20
2018-05-25T04:47:11.748Z,16.20
2018-05-25T04:49:39.244Z,16.50
2018-05-25T04:52:06.770Z,16.60
2018-05-25T04:54:35.176Z,16.80
2018-05-25T04:57:02.707Z,17.00
2018-05-25T04:59:30.540Z,17.10
2018-05-25T05:01:58.040Z,17.20
2018-05-25T05:04:25.568Z,17.20
2018-05-25T05:06:53.062Z,17.30
2018-05-25T05:09:20.599Z,17.40
2018-05-25T05:11:48.097Z,17.40
2018-05-25T05:14:15.592Z,17.50
2018-05-25T05:16:43.125Z,17.50
2018-05-25T05:19:10.620Z,17.50
2018-05-25T05:21:38.144Z,17.60
2018-05-25T05:24:06.076Z,17.60
2018-05-25T05:26:33.575Z,17.70
2018-05-25T05:29:01.096Z,17.80
2018-05-25T05:31:28.860Z,18.00
2018-05-25T05:33:56.383Z,18.00
2018-05-25T05:36:23.889Z,18.10
2018-05-25T05:38:51.398Z,18.20
2018-05-25T05:41:18.921Z,18.10
2018-05-25T05:43:46.411Z,18.10
2018-05-25T05:46:15.189Z,18.10
2018-05-25T05:48:42.683Z,18.20
2018-05-25T05:51:10.195Z,18.10
2018-05-25T05:53:37.699Z,18.00
2018-05-25T05:56:05.948Z,18.00
2018-05-25T05:58:35.968Z,18.00
2018-05-25T06:01:03.476Z,18.00
2018-05-25T06:03:31.032Z,18.10
2018-05-25T06:05:58.515Z,18.20
2018-05-25T06:08:26.013Z,18.20
2018-05-25T06:10:53.533Z,18.20
2018-05-25T06:13:21.030Z,18.20
2018-05-25T06:15:48.551Z,18.40
2018-05-25T06:18:16.047Z,18.50
2018-05-25T06:20:43.545Z,18.50
2018-05-25T06:23:11.063Z,18.50
2018-05-25T06:25:38.566Z,18.40
2018-05-25T06:28:06.069Z,18.50
2018-05-25T06:30:33.587Z,18.60
2018-05-25T06:33:01.086Z,18.50
2018-05-25T06:35:28.612Z,18.50
2018-05-25T06:37:56.121Z,18.40
2018-05-25T06:40:23.635Z,18.50
2018-05-25T06:42:51.153Z,18.60
2018-05-25T06:45:18.668Z,18.60
2018-05-25T06:47:46.164Z,18.70
2018-05-25T06:50:13.686Z,18.80
2018-05-25T06:52:41.751Z,18.90
2018-05-25T06:55:09.272Z,19.10
2018-05-25T06:57:36.769Z,19.20
2018-05-25T07:00:04.263Z,19.20
2018-05-25T07:02:31.781Z,19.20
2018-05-25T07:04:59.276Z,19.10
2018-05-25T07:07:26.804Z,19.30
2018-05-25T07:09:54.300Z,19.30
2018-05-25T07:12:21.790Z,19.40
2018-05-25T07:14:49.311Z,19.60
2018-05-25T07:17:19.715Z,19.60
2018-05-25T07:19:47.268Z,19.70
2018-05-25T07:22:14.781Z,19.70
2018-05-25T07:24:42.882Z,19.80
2018-05-25T07:27:10.377Z,19.80
2018-05-25T07:29:37.883Z,19.80
2018-05-25T07:32:05.781Z,19.70
2018-05-25T07:34:33.409Z,19.80
2018-05-25T07:37:01.050Z,19.80
2018-05-25T07:39:28.597Z,19.80
2018-05-25T07:41:56.201Z,19.90
2018-05-25T07:44:23.854Z,19.90
2018-05-25T07:46:51.351Z,20.00
2018-05-25T07:49:18.893Z,19.90
2018-05-25T07:51:46.437Z,19.90
2018-05-25T07:54:13.933Z,19.80
2018-05-25T07:56:41.451Z,19.90
2018-05-25T07:59:08.952Z,19.80
2018-05-25T08:01:36.472Z,19.70
2018-05-25T08:04:03.987Z,19.80
2018-05-25T08:06:31.491Z,19.80
2018-05-25T08:08:59.010Z,19.90
2018-05-25T08:11:26.522Z,20.00
2018-05-25T08:13:54.051Z,20.10
2018-05-25T08:16:22.003Z,20.30
2018-05-25T08:18:49.507Z,20.40
2018-05-25T08:21:17.036Z,20.50
2018-05-25T08:23:44.535Z,20.50
2018-05-25T08:26:12.060Z,20.60
2018-05-25T08:28:39.578Z,20.70
2018-05-25T08:31:07.767Z,20.60
2018-05-25T08:33:35.288Z,20.70
2018-05-25T08:36:03.697Z,20.90
2018-05-25T08:38:31.988Z,21.20
2018-05-25T08:40:59.480Z,21.20
2018-05-25T08:43:26.979Z,21.20
2018-05-25T08:45:55.372Z,21.20
2018-05-25T08:48:23.453Z,21.30
2018-05-25T08:50:50.952Z,21.50
2018-05-25T08:53:18.747Z,21.60
2018-05-25T08:55:46.308Z,21.50
2018-05-25T08:58:14.369Z,21.70
2018-05-25T09:00:43.242Z,21.90
2018-05-25T09:03:11.141Z,22.00
2018-05-25T09:05:39.112Z,21.90
2018-05-25T09:08:07.515Z,21.90
2018-05-25T09:10:35.015Z,21.50
2018-05-25T09:13:02.535Z,21.70
2018-05-25T09:15:30.500Z,22.10
2018-05-25T09:17:58.026Z,22.40
2018-05-25T09:20:26.383Z,22.70
2018-05-25T09:22:54.476Z,22.90
2018-05-25T09:25:22.171Z,23.10
2018-05-25T09:27:50.252Z,23.10
2018-05-25T09:30:17.767Z,23.10
2018-05-25T09:32:45.262Z,23.10
2018-05-25T09:35:12.759Z,23.30
2018-05-25T09:37:40.286Z,23.20
2018-05-25T09:40:08.340Z,23.30
2018-05-25T09:42:35.868Z,23.40
2018-05-25T09:45:03.364Z,23.30
2018-05-25T09:47:30.860Z,23.30
2018-05-25T09:49:58.379Z,23.20
2018-05-25T09:52:25.873Z,23.30
2018-05-25T09:54:53.463Z,23.20
2018-05-25T09:57:20.960Z,23.10
2018-05-25T09:59:48.474Z,23.10
2018-05-25T10:02:15.964Z,23.10
2018-05-25T10:04:43.460Z,23.40
2018-05-25T10:07:10.981Z,23.80
2018-05-25T10:09:38.476Z,24.00
2018-05-25T10:12:06.467Z,24.10
2018-05-25T10:14:34.436Z,24.00
2018-05-25T10:17:01.932Z,24.00
2018-05-25T10:19:29.459Z,24.10
2018-05-25T10:21:56.989Z,24.20
2018-05-25T10:24:24.511Z,24.10
2018-05-25T10:26:52.006Z,24.60
2018-05-25T10:29:19.503Z,24.90
2018-05-25T10:31:47.594Z,24.90
2018-05-25T10:34:15.112Z,24.80
2018-05-25T10:36:42.640Z,24.70
2018-05-25T10:39:10.147Z,24.70
2018-05-25T10:41:37.648Z,24.60
2018-05-25T10:44:05.168Z,24.30
2018-05-25T10:46:32.667Z,24.10
2018-05-25T10:49:00.183Z,24.10
2018-05-25T10:51:27.685Z,24.20
2018-05-25T10:53:55.180Z,24.30
2018-05-25T10:56:23.011Z,24.40
2018-05-25T10:58:50.507Z,24.30
2018-05-25T11:01:19.588Z,24.20
2018-05-25T11:03:48.564Z,24.50
2018-05-25T11:06:16.092Z,24.90
2018-05-25T11:08:43.628Z,25.10
2018-05-25T11:11:11.347Z,25.20
2018-05-25T11:13:38.871Z,25.60
2018-05-25T11:16:06.380Z,25.70
2018-05-25T11:18:34.353Z,25.90
2018-05-25T11:21:01.948Z,25.90
2018-05-25T11:26:20.093Z,25.90
2018-05-25T11:28:48.731Z,26.00
2018-05-25T11:31:16.801Z,25.90
2018-05-25T11:33:44.326Z,26.00
2018-05-25T11:36:11.839Z,26.20
2018-05-25T11:38:40.292Z,26.40
2018-05-25T11:41:07.797Z,26.30
2018-05-25T11:43:35.398Z,26.20
2018-05-25T11:46:02.940Z,26.30
2018-05-25T11:48:31.194Z,26.80
2018-05-25T11:50:58.798Z,28.10
